sensor_id;sensor_type;location;lat;lon;timestamp;pressure;altitude;pressure_sealevel;temperature;humidity
59789;BME280;47353;51.614;5.530;2022-08-21T00:01:43;101608.59;;;14.73;87.80
59789;BME280;47353;51.614;5.530;2022-08-21T00:04:09;101605.00;;;14.72;87.70
59789;BME280;47353;51.614;5.530;2022-08-21T00:06:36;101605.31;;;14.66;88.08
59789;BME280;47353;51.614;5.530;2022-08-21T00:09:04;101601.97;;;14.64;88.40
59789;BME280;47353;51.614;5.530;2022-08-21T00:11:31;101593.59;;;14.64;88.71
59789;BME280;47353;51.614;5.530;2022-08-21T00:13:56;101598.38;;;14.58;89.05
59789;BME280;47353;51.614;5.530;2022-08-21T00:16:22;101598.38;;;14.58;88.70
59789;BME280;47353;51.614;5.530;2022-08-21T00:18:48;101598.09;;;14.60;88.96
59789;BME280;47353;51.614;5.530;2022-08-21T00:21:14;101591.97;;;14.53;89.14
59789;BME280;47353;51.614;5.530;2022-08-21T00:23:39;101591.75;;;14.49;89.41
59789;BME280;47353;51.614;5.530;2022-08-21T00:26:05;101601.19;;;14.48;89.62
59789;BME280;47353;51.614;5.530;2022-08-21T00:28:31;101599.56;;;14.42;89.79
59789;BME280;47353;51.614;5.530;2022-08-21T00:30:56;101593.69;;;14.44;89.53
59789;BME280;47353;51.614;5.530;2022-08-21T00:33:23;101596.25;;;14.40;90.19
59789;BME280;47353;51.614;5.530;2022-08-21T00:35:48;101591.50;;;14.36;90.04
59789;BME280;47353;51.614;5.530;2022-08-21T00:38:14;101590.41;;;14.32;90.21
59789;BME280;47353;51.614;5.530;2022-08-21T00:40:50;101582.03;;;14.32;90.99
59789;BME280;47353;51.614;5.530;2022-08-21T00:43:19;101584.00;;;14.31;90.66
59789;BME280;47353;51.614;5.530;2022-08-21T00:45:46;101585.13;;;14.25;90.95
59789;BME280;47353;51.614;5.530;2022-08-21T00:48:11;101575.13;;;14.24;90.81
59789;BME280;47353;51.614;5.530;2022-08-21T00:50:43;101584.84;;;14.22;91.33
59789;BME280;47353;51.614;5.530;2022-08-21T00:53:10;101584.28;;;14.20;91.41
59789;BME280;47353;51.614;5.530;2022-08-21T00:55:37;101580.38;;;14.16;91.32
59789;BME280;47353;51.614;5.530;2022-08-21T00:58:05;101580.94;;;14.18;91.17
59789;BME280;47353;51.614;5.530;2022-08-21T01:00:35;101581.22;;;14.16;91.01
59789;BME280;47353;51.614;5.530;2022-08-21T01:03:08;101592.34;;;14.21;90.67
59789;BME280;47353;51.614;5.530;2022-08-21T01:05:34;101589.56;;;14.16;90.73
59789;BME280;47353;51.614;5.530;2022-08-21T01:08:00;101589.88;;;14.10;90.90
59789;BME280;47353;51.614;5.530;2022-08-21T01:10:26;101587.38;;;14.08;91.17
59789;BME280;47353;51.614;5.530;2022-08-21T01:12:52;101590.19;;;14.03;91.32
59789;BME280;47353;51.614;5.530;2022-08-21T01:15:21;101577.66;;;13.96;91.60
59789;BME280;47353;51.614;5.530;2022-08-21T01:17:49;101592.97;;;13.98;91.77
59789;BME280;47353;51.614;5.530;2022-08-21T01:20:15;101591.03;;;13.94;91.30
59789;BME280;47353;51.614;5.530;2022-08-21T01:22:42;101579.06;;;13.98;91.34
59789;BME280;47353;51.614;5.530;2022-08-21T01:25:09;101587.13;;;14.05;91.30
59789;BME280;47353;51.614;5.530;2022-08-21T01:27:35;101579.88;;;14.04;91.25
59789;BME280;47353;51.614;5.530;2022-08-21T01:30:09;101581.78;;;14.08;91.15
59789;BME280;47353;51.614;5.530;2022-08-21T01:32:36;101574.28;;;14.04;90.96
59789;BME280;47353;51.614;5.530;2022-08-21T01:35:03;101586.84;;;14.01;91.36
59789;BME280;47353;51.614;5.530;2022-08-21T01:37:28;101585.75;;;13.97;91.61
59789;BME280;47353;51.614;5.530;2022-08-21T01:39:54;101584.91;;;13.92;91.69
59789;BME280;47353;51.614;5.530;2022-08-21T01:42:19;101577.13;;;13.84;92.19
59789;BME280;47353;51.614;5.530;2022-08-21T01:44:44;101581.31;;;13.81;92.13
59789;BME280;47353;51.614;5.530;2022-08-21T01:47:12;101588.28;;;13.74;92.69
59789;BME280;47353;51.614;5.530;2022-08-21T01:49:39;101591.06;;;13.74;92.71
59789;BME280;47353;51.614;5.530;2022-08-21T01:52:05;101585.22;;;13.70;92.90
59789;BME280;47353;51.614;5.530;2022-08-21T01:54:31;101581.63;;;13.65;93.00
59789;BME280;47353;51.614;5.530;2022-08-21T01:56:58;101581.03;;;13.63;93.08
59789;BME280;47353;51.614;5.530;2022-08-21T01:59:24;101581.88;;;13.58;93.41
59789;BME280;47353;51.614;5.530;2022-08-21T02:01:50;101571.59;;;13.49;93.69
59789;BME280;47353;51.614;5.530;2022-08-21T02:04:16;101575.47;;;13.53;93.89
59789;BME280;47353;51.614;5.530;2022-08-21T02:06:42;101571.59;;;13.49;94.37
59789;BME280;47353;51.614;5.530;2022-08-21T02:09:09;101567.72;;;13.45;94.36
59789;BME280;47353;51.614;5.530;2022-08-21T02:11:36;101576.06;;;13.45;94.48
59789;BME280;47353;51.614;5.530;2022-08-21T02:14:02;101563.25;;;13.38;94.79
59789;BME280;47353;51.614;5.530;2022-08-21T02:16:27;101559.91;;;13.36;94.78
59789;BME280;47353;51.614;5.530;2022-08-21T02:18:53;101559.91;;;13.31;95.09
59789;BME280;47353;51.614;5.530;2022-08-21T02:21:18;101561.84;;;13.31;95.13
59789;BME280;47353;51.614;5.530;2022-08-21T02:23:44;101556.31;;;13.26;95.26
59789;BME280;47353;51.614;5.530;2022-08-21T02:26:10;101557.13;;;13.21;95.64
59789;BME280;47353;51.614;5.530;2022-08-21T02:28:36;101552.94;;;13.19;95.60
59789;BME280;47353;51.614;5.530;2022-08-21T02:31:04;101552.41;;;13.12;95.91
59789;BME280;47353;51.614;5.530;2022-08-21T02:33:29;101557.41;;;13.15;96.21
59789;BME280;47353;51.614;5.530;2022-08-21T02:35:55;101562.69;;;13.11;96.13
59789;BME280;47353;51.614;5.530;2022-08-21T02:38:27;101553.75;;;13.09;96.43
59789;BME280;47353;51.614;5.530;2022-08-21T02:40:53;101547.94;;;13.06;96.55
59789;BME280;47353;51.614;5.530;2022-08-21T02:43:21;101549.88;;;13.05;96.71
59789;BME280;47353;51.614;5.530;2022-08-21T02:45:48;101547.94;;;13.06;96.85
59789;BME280;47353;51.614;5.530;2022-08-21T02:48:17;101545.44;;;13.04;96.83
59789;BME280;47353;51.614;5.530;2022-08-21T02:50:48;101542.66;;;13.04;96.87
59789;BME280;47353;51.614;5.530;2022-08-21T02:53:15;101540.97;;;12.98;97.15
59789;BME280;47353;51.614;5.530;2022-08-21T02:55:42;101552.09;;;12.98;97.01
59789;BME280;47353;51.614;5.530;2022-08-21T02:58:09;101547.31;;;12.94;97.37
59789;BME280;47353;51.614;5.530;2022-08-21T03:00:36;101543.44;;;12.95;97.29
59789;BME280;47353;51.614;5.530;2022-08-21T03:03:02;101543.44;;;12.95;97.05
59789;BME280;47353;51.614;5.530;2022-08-21T03:05:29;101545.66;;;12.88;97.65
59789;BME280;47353;51.614;5.530;2022-08-21T03:07:56;101539.81;;;12.89;97.51
59789;BME280;47353;51.614;5.530;2022-08-21T03:10:22;101541.78;;;12.89;97.86
59789;BME280;47353;51.614;5.530;2022-08-21T03:12:48;101544.53;;;12.94;98.48
59789;BME280;47353;51.614;5.530;2022-08-21T03:15:16;101544.84;;;12.87;98.49
59789;BME280;47353;51.614;5.530;2022-08-21T03:17:43;101544.25;;;12.85;98.42
59789;BME280;47353;51.614;5.530;2022-08-21T03:20:09;101540.38;;;12.81;98.58
59789;BME280;47353;51.614;5.530;2022-08-21T03:22:35;101546.47;;;12.83;98.68
59789;BME280;47353;51.614;5.530;2022-08-21T03:25:00;101541.19;;;12.82;98.94
59789;BME280;47353;51.614;5.530;2022-08-21T03:27:27;101538.16;;;12.78;98.79
59789;BME280;47353;51.614;5.530;2022-08-21T03:29:54;101534.53;;;12.78;98.88
59789;BME280;47353;51.614;5.530;2022-08-21T03:32:20;101536.72;;;12.71;99.11
59789;BME280;47353;51.614;5.530;2022-08-21T03:34:46;101533.13;;;12.80;99.50
59789;BME280;47353;51.614;5.530;2022-08-21T03:37:12;101534.25;;;12.79;99.84
59789;BME280;47353;51.614;5.530;2022-08-21T03:39:38;101530.06;;;12.72;99.56
59789;BME280;47353;51.614;5.530;2022-08-21T03:42:04;101537.59;;;12.81;99.97
59789;BME280;47353;51.614;5.530;2022-08-21T03:44:30;101526.44;;;12.71;100.00
59789;BME280;47353;51.614;5.530;2022-08-21T03:46:56;101536.44;;;12.72;99.95
59789;BME280;47353;51.614;5.530;2022-08-21T03:49:21;101527.00;;;12.68;99.77
59789;BME280;47353;51.614;5.530;2022-08-21T03:51:46;101533.38;;;12.64;99.94
59789;BME280;47353;51.614;5.530;2022-08-21T03:54:12;101524.19;;;12.63;100.00
59789;BME280;47353;51.614;5.530;2022-08-21T03:56:38;101531.41;;;12.54;100.00
59789;BME280;47353;51.614;5.530;2022-08-21T03:59:04;101530.84;;;12.57;100.00
59789;BME280;47353;51.614;5.530;2022-08-21T04:01:30;101534.72;;;12.51;100.00
59789;BME280;47353;51.614;5.530;2022-08-21T04:03:56;101537.22;;;12.48;100.00
59789;BME280;47353;51.614;5.530;2022-08-21T04:06:21;101533.63;;;12.47;100.00
59789;BME280;47353;51.614;5.530;2022-08-21T04:08:47;101530.84;;;12.47;100.00
59789;BME280;47353;51.614;5.530;2022-08-21T04:11:12;101533.88;;;12.41;100.00
59789;BME280;47353;51.614;5.530;2022-08-21T04:13:38;101539.16;;;12.42;100.00
59789;BME280;47353;51.614;5.530;2022-08-21T04:16:04;101532.47;;;12.38;100.00
59789;BME280;47353;51.614;5.530;2022-08-21T04:18:29;101531.34;;;12.39;100.00
59789;BME280;47353;51.614;5.530;2022-08-21T04:20:56;101532.72;;;12.32;100.00
59789;BME280;47353;51.614;5.530;2022-08-21T04:23:22;101526.63;;;12.35;100.00
59789;BME280;47353;51.614;5.530;2022-08-21T04:25:48;101536.59;;;12.31;100.00
59789;BME280;47353;51.614;5.530;2022-08-21T04:28:13;101535.19;;;12.28;100.00
59789;BME280;47353;51.614;5.530;2022-08-21T04:30:39;101539.38;;;12.31;100.00
59789;BME280;47353;51.614;5.530;2022-08-21T04:33:04;101545.47;;;12.28;100.00
59789;BME280;47353;51.614;5.530;2022-08-21T04:35:31;101547.38;;;12.22;100.00
59789;BME280;47353;51.614;5.530;2022-08-21T04:37:57;101551.56;;;12.25;100.00
59789;BME280;47353;51.614;5.530;2022-08-21T04:40:24;101559.59;;;12.21;100.00
59789;BME280;47353;51.614;5.530;2022-08-21T04:42:56;101559.59;;;12.26;100.00
59789;BME280;47353;51.614;5.530;2022-08-21T04:45:28;101559.59;;;12.26;100.00
59789;BME280;47353;51.614;5.530;2022-08-21T04:47:56;101555.75;;;12.32;100.00
59789;BME280;47353;51.614;5.530;2022-08-21T04:50:25;101549.06;;;12.28;100.00
59789;BME280;47353;51.614;5.530;2022-08-21T04:52:52;101559.06;;;12.29;100.00
59789;BME280;47353;51.614;5.530;2022-08-21T04:55:18;101550.72;;;12.29;100.00
59789;BME280;47353;51.614;5.530;2022-08-21T04:57:45;101553.81;;;12.33;100.00
59789;BME280;47353;51.614;5.530;2022-08-21T05:00:11;101550.75;;;12.34;100.00
59789;BME280;47353;51.614;5.530;2022-08-21T05:02:39;101549.41;;;12.37;100.00
59789;BME280;47353;51.614;5.530;2022-08-21T05:05:05;101555.81;;;12.42;100.00
59789;BME280;47353;51.614;5.530;2022-08-21T05:07:31;101553.03;;;12.42;100.00
59789;BME280;47353;51.614;5.530;2022-08-21T05:09:59;101564.97;;;12.48;100.00
59789;BME280;47353;51.614;5.530;2022-08-21T05:12:24;101565.25;;;12.46;100.00
59789;BME280;47353;51.614;5.530;2022-08-21T05:14:50;101562.47;;;12.46;100.00
59789;BME280;47353;51.614;5.530;2022-08-21T05:17:15;101567.75;;;12.48;100.00
59789;BME280;47353;51.614;5.530;2022-08-21T05:19:41;101570.56;;;12.53;100.00
59789;BME280;47353;51.614;5.530;2022-08-21T05:22:06;101565.00;;;12.53;100.00
59789;BME280;47353;51.614;5.530;2022-08-21T05:24:32;101567.53;;;12.59;100.00
59789;BME280;47353;51.614;5.530;2022-08-21T05:26:57;101576.97;;;12.63;100.00
59789;BME280;47353;51.614;5.530;2022-08-21T05:29:24;101576.16;;;12.68;100.00
59789;BME280;47353;51.614;5.530;2022-08-21T05:31:50;101566.75;;;12.74;100.00
59789;BME280;47353;51.614;5.530;2022-08-21T05:34:20;101572.56;;;12.77;100.00
59789;BME280;47353;51.614;5.530;2022-08-21T05:36:46;101575.38;;;12.82;100.00
59789;BME280;47353;51.614;5.530;2022-08-21T05:39:11;101579.84;;;12.88;100.00
59789;BME280;47353;51.614;5.530;2022-08-21T05:41:37;101575.38;;;12.92;100.00
59789;BME280;47353;51.614;5.530;2022-08-21T05:44:03;101575.97;;;12.99;99.68
59789;BME280;47353;51.614;5.530;2022-08-21T05:46:28;101581.31;;;13.06;99.76
59789;BME280;47353;51.614;5.530;2022-08-21T05:48:53;101580.72;;;13.14;99.64
59789;BME280;47353;51.614;5.530;2022-08-21T05:51:19;101582.69;;;13.23;99.48
59789;BME280;47353;51.614;5.530;2022-08-21T05:53:44;101587.44;;;13.33;99.03
59789;BME280;47353;51.614;5.530;2022-08-21T05:56:11;101589.97;;;13.45;98.72
59789;BME280;47353;51.614;5.530;2022-08-21T05:58:37;101588.28;;;13.59;98.06
59789;BME280;47353;51.614;5.530;2022-08-21T06:01:03;101587.44;;;13.68;97.69
59789;BME280;47353;51.614;5.530;2022-08-21T06:03:31;101588.81;;;13.81;97.51
59789;BME280;47353;51.614;5.530;2022-08-21T06:05:57;101586.03;;;13.91;97.25
59789;BME280;47353;51.614;5.530;2022-08-21T06:08:23;101588.50;;;14.12;96.86
59789;BME280;47353;51.614;5.530;2022-08-21T06:10:50;101592.34;;;14.36;96.21
59789;BME280;47353;51.614;5.530;2022-08-21T06:13:17;101588.09;;;14.59;95.40
59789;BME280;47353;51.614;5.530;2022-08-21T06:15:43;101591.31;;;14.76;93.83
59789;BME280;47353;51.614;5.530;2022-08-21T06:18:09;101599.25;;;15.02;93.42
59789;BME280;47353;51.614;5.530;2022-08-21T06:20:34;101596.59;;;15.26;91.70
59789;BME280;47353;51.614;5.530;2022-08-21T06:23:00;101597.25;;;15.52;91.31
59789;BME280;47353;51.614;5.530;2022-08-21T06:25:25;101599.72;;;15.58;88.92
59789;BME280;47353;51.614;5.530;2022-08-21T06:27:51;101590.00;;;15.56;87.32
59789;BME280;47353;51.614;5.530;2022-08-21T06:30:17;101593.13;;;15.78;87.80
59789;BME280;47353;51.614;5.530;2022-08-21T06:32:43;101592.84;;;16.08;86.43
59789;BME280;47353;51.614;5.530;2022-08-21T06:35:09;101596.06;;;16.20;85.38
59789;BME280;47353;51.614;5.530;2022-08-21T06:37:34;101588.03;;;16.37;85.18
59789;BME280;47353;51.614;5.530;2022-08-21T06:40:00;101595.22;;;16.48;82.67
59789;BME280;47353;51.614;5.530;2022-08-21T06:42:25;101594.59;;;16.51;82.87
59789;BME280;47353;51.614;5.530;2022-08-21T06:44:53;101600.34;;;16.59;82.36
59789;BME280;47353;51.614;5.530;2022-08-21T06:47:18;101592.69;;;16.70;82.64
59789;BME280;47353;51.614;5.530;2022-08-21T06:49:43;101588.59;;;16.81;81.40
59789;BME280;47353;51.614;5.530;2022-08-21T06:52:12;101583.56;;;17.02;81.62
59789;BME280;47353;51.614;5.530;2022-08-21T06:54:38;101598.16;;;16.99;80.77
59789;BME280;47353;51.614;5.530;2022-08-21T06:57:04;101577.31;;;17.28;80.69
59789;BME280;47353;51.614;5.530;2022-08-21T06:59:30;101594.22;;;17.55;80.04
59789;BME280;47353;51.614;5.530;2022-08-21T07:01:55;101587.13;;;18.08;79.32
59789;BME280;47353;51.614;5.530;2022-08-21T07:04:20;101591.81;;;18.13;76.54
59789;BME280;47353;51.614;5.530;2022-08-21T07:06:46;101594.16;;;18.06;76.81
59789;BME280;47353;51.614;5.530;2022-08-21T07:09:11;101580.91;;;18.11;77.47
59789;BME280;47353;51.614;5.530;2022-08-21T07:11:37;101595.09;;;18.01;76.94
59789;BME280;47353;51.614;5.530;2022-08-21T07:14:02;101577.34;;;18.06;76.58
59789;BME280;47353;51.614;5.530;2022-08-21T07:16:28;101586.84;;;18.23;76.69
59789;BME280;47353;51.614;5.530;2022-08-21T07:18:53;101588.97;;;18.72;77.21
59789;BME280;47353;51.614;5.530;2022-08-21T07:21:19;101592.72;;;19.03;74.54
59789;BME280;47353;51.614;5.530;2022-08-21T07:23:49;101590.41;;;19.19;73.43
59789;BME280;47353;51.614;5.530;2022-08-21T07:26:18;101587.72;;;19.27;73.42
59789;BME280;47353;51.614;5.530;2022-08-21T07:28:45;101583.78;;;20.25;75.26
59789;BME280;47353;51.614;5.530;2022-08-21T07:31:14;101587.91;;;20.19;70.95
59789;BME280;47353;51.614;5.530;2022-08-21T07:33:40;101592.22;;;20.25;69.84
59789;BME280;47353;51.614;5.530;2022-08-21T07:36:06;101589.22;;;20.52;68.03
59789;BME280;47353;51.614;5.530;2022-08-21T07:38:32;101586.75;;;19.98;70.26
59789;BME280;47353;51.614;5.530;2022-08-21T07:40:59;101583.16;;;19.75;72.25
59789;BME280;47353;51.614;5.530;2022-08-21T07:43:26;101588.97;;;19.57;72.53
59789;BME280;47353;51.614;5.530;2022-08-21T07:45:51;101588.25;;;19.73;71.73
59789;BME280;47353;51.614;5.530;2022-08-21T07:48:17;101589.41;;;19.72;71.15
59789;BME280;47353;51.614;5.530;2022-08-21T07:50:42;101595.59;;;19.83;71.26
59789;BME280;47353;51.614;5.530;2022-08-21T07:53:08;101593.38;;;20.02;71.52
59789;BME280;47353;51.614;5.530;2022-08-21T07:55:33;101591.31;;;20.38;69.88
59789;BME280;47353;51.614;5.530;2022-08-21T07:57:59;101593.78;;;20.79;69.38
59789;BME280;47353;51.614;5.530;2022-08-21T08:00:26;101591.03;;;21.64;68.55
59789;BME280;47353;51.614;5.530;2022-08-21T08:02:53;101592.34;;;22.09;64.75
59789;BME280;47353;51.614;5.530;2022-08-21T08:05:21;101594.25;;;22.72;63.71
59789;BME280;47353;51.614;5.530;2022-08-21T08:07:47;101592.09;;;22.77;60.94
59789;BME280;47353;51.614;5.530;2022-08-21T08:10:13;101588.22;;;23.11;59.37
59789;BME280;47353;51.614;5.530;2022-08-21T08:12:41;101591.44;;;23.01;59.25
59789;BME280;47353;51.614;5.530;2022-08-21T08:15:16;101580.28;;;23.04;59.78
59789;BME280;47353;51.614;5.530;2022-08-21T08:17:42;101590.50;;;22.59;58.78
59789;BME280;47353;51.614;5.530;2022-08-21T08:20:14;101589.94;;;22.74;59.40
59789;BME280;47353;51.614;5.530;2022-08-21T08:22:41;101593.44;;;23.00;58.94
59789;BME280;47353;51.614;5.530;2022-08-21T08:25:09;101592.28;;;23.22;58.54
59789;BME280;47353;51.614;5.530;2022-08-21T08:27:35;101586.94;;;23.50;57.57
59789;BME280;47353;51.614;5.530;2022-08-21T08:30:02;101590.56;;;24.48;54.45
59789;BME280;47353;51.614;5.530;2022-08-21T08:32:27;101587.41;;;25.61;52.11
59789;BME280;47353;51.614;5.530;2022-08-21T08:34:53;101583.22;;;26.26;49.25
59789;BME280;47353;51.614;5.530;2022-08-21T08:37:20;101584.41;;;26.56;47.92
59789;BME280;47353;51.614;5.530;2022-08-21T08:39:46;101583.03;;;26.97;46.60
59789;BME280;47353;51.614;5.530;2022-08-21T08:42:33;101582.53;;;27.10;48.73
59789;BME280;47353;51.614;5.530;2022-08-21T08:45:03;101588.63;;;26.31;47.19
59789;BME280;47353;51.614;5.530;2022-08-21T08:47:31;101581.44;;;26.06;48.52
59789;BME280;47353;51.614;5.530;2022-08-21T08:50:12;101579.38;;;26.65;48.56
59789;BME280;47353;51.614;5.530;2022-08-21T08:52:47;101572.94;;;26.99;47.65
59789;BME280;47353;51.614;5.530;2022-08-21T08:55:30;101571.72;;;27.69;45.57
59789;BME280;47353;51.614;5.530;2022-08-21T08:57:57;101566.09;;;26.85;44.72
59789;BME280;47353;51.614;5.530;2022-08-21T09:00:24;101569.63;;;27.13;45.07
59789;BME280;47353;51.614;5.530;2022-08-21T09:02:52;101565.19;;;27.31;45.14
59789;BME280;47353;51.614;5.530;2022-08-21T09:11:59;101556.09;;;28.21;43.54
59789;BME280;47353;51.614;5.530;2022-08-21T09:17:18;101557.97;;;28.81;41.13
59789;BME280;47353;51.614;5.530;2022-08-21T09:27:47;101551.19;;;27.60;42.27
59789;BME280;47353;51.614;5.530;2022-08-21T09:30:13;101553.28;;;28.24;40.62
59789;BME280;47353;51.614;5.530;2022-08-21T09:32:39;101548.03;;;28.97;39.07
59789;BME280;47353;51.614;5.530;2022-08-21T09:37:34;101548.38;;;28.92;39.71
59789;BME280;47353;51.614;5.530;2022-08-21T09:40:01;101538.66;;;29.53;39.12
59789;BME280;47353;51.614;5.530;2022-08-21T09:42:30;101546.31;;;29.75;38.27
59789;BME280;47353;51.614;5.530;2022-08-21T09:45:16;101556.94;;;30.54;35.69
59789;BME280;47353;51.614;5.530;2022-08-21T09:47:43;101557.41;;;31.11;34.91
59789;BME280;47353;51.614;5.530;2022-08-21T09:50:23;101552.78;;;30.92;35.25
59789;BME280;47353;51.614;5.530;2022-08-21T09:52:55;101560.63;;;31.77;33.18
59789;BME280;47353;51.614;5.530;2022-08-21T09:58:10;101554.16;;;30.65;34.54
59789;BME280;47353;51.614;5.530;2022-08-21T10:00:36;101547.22;;;30.62;34.09
59789;BME280;47353;51.614;5.530;2022-08-21T10:03:20;101552.28;;;29.37;35.39
59789;BME280;47353;51.614;5.530;2022-08-21T10:06:04;101547.09;;;28.64;38.24
59789;BME280;47353;51.614;5.530;2022-08-21T10:08:32;101560.63;;;27.64;38.17
59789;BME280;47353;51.614;5.530;2022-08-21T10:11:13;101551.34;;;28.51;38.74
59789;BME280;47353;51.614;5.530;2022-08-21T10:17:04;101551.72;;;29.24;37.84
59789;BME280;47353;51.614;5.530;2022-08-21T10:19:43;101542.84;;;29.95;35.09
59789;BME280;47353;51.614;5.530;2022-08-21T10:22:28;101553.66;;;31.68;33.95
59789;BME280;47353;51.614;5.530;2022-08-21T10:25:19;101562.00;;;31.26;32.82
59789;BME280;47353;51.614;5.530;2022-08-21T10:27:58;101559.47;;;28.07;37.09
59789;BME280;47353;51.614;5.530;2022-08-21T10:30:40;101548.78;;;28.23;38.30
59789;BME280;47353;51.614;5.530;2022-08-21T10:33:19;101549.78;;;29.32;35.96
59789;BME280;47353;51.614;5.530;2022-08-21T10:46:53;101545.28;;;32.77;31.37
59789;BME280;47353;51.614;5.530;2022-08-21T10:54:56;101543.03;;;30.97;33.22
59789;BME280;47353;51.614;5.530;2022-08-21T10:57:45;101536.53;;;31.07;32.75
59789;BME280;47353;51.614;5.530;2022-08-21T11:00:15;101536.84;;;30.44;32.71
59789;BME280;47353;51.614;5.530;2022-08-21T11:02:51;101531.88;;;29.97;35.86
59789;BME280;47353;51.614;5.530;2022-08-21T11:08:12;101531.97;;;30.48;33.81
59789;BME280;47353;51.614;5.530;2022-08-21T11:10:44;101526.53;;;29.30;35.54
59789;BME280;47353;51.614;5.530;2022-08-21T11:13:24;101527.41;;;28.33;37.92
59789;BME280;47353;51.614;5.530;2022-08-21T11:18:28;101523.88;;;29.44;37.14
59789;BME280;47353;51.614;5.530;2022-08-21T11:24:02;101529.44;;;29.33;35.87
59789;BME280;47353;51.614;5.530;2022-08-21T11:26:37;101518.56;;;29.12;34.69
59789;BME280;47353;51.614;5.530;2022-08-21T11:29:11;101520.03;;;29.62;34.43
59789;BME280;47353;51.614;5.530;2022-08-21T11:31:51;101529.25;;;29.82;32.88
59789;BME280;47353;51.614;5.530;2022-08-21T11:45:54;101519.06;;;32.89;30.50
59789;BME280;47353;51.614;5.530;2022-08-21T11:51:06;101512.56;;;34.98;26.14
59789;BME280;47353;51.614;5.530;2022-08-21T11:53:40;101521.56;;;34.56;26.51
59789;BME280;47353;51.614;5.530;2022-08-21T11:56:20;101520.00;;;33.79;28.72
59789;BME280;47353;51.614;5.530;2022-08-21T11:59:17;101528.00;;;34.16;28.06
59789;BME280;47353;51.614;5.530;2022-08-21T12:01:46;101531.00;;;33.98;26.86
59789;BME280;47353;51.614;5.530;2022-08-21T12:04:31;101537.50;;;32.60;27.50
59789;BME280;47353;51.614;5.530;2022-08-21T12:07:29;101536.28;;;30.24;31.36
59789;BME280;47353;51.614;5.530;2022-08-21T12:09:57;101531.81;;;30.27;31.55
59789;BME280;47353;51.614;5.530;2022-08-21T12:12:33;101537.00;;;31.12;29.86
59789;BME280;47353;51.614;5.530;2022-08-21T12:18:02;101535.16;;;30.83;30.88
59789;BME280;47353;51.614;5.530;2022-08-21T12:20:58;101531.75;;;29.87;32.14
59789;BME280;47353;51.614;5.530;2022-08-21T12:23:28;101522.50;;;28.78;34.01
59789;BME280;47353;51.614;5.530;2022-08-21T12:26:24;101522.16;;;30.05;33.90
59789;BME280;47353;51.614;5.530;2022-08-21T12:28:51;101525.59;;;32.82;29.17
59789;BME280;47353;51.614;5.530;2022-08-21T12:31:27;101525.47;;;33.56;26.25
59789;BME280;47353;51.614;5.530;2022-08-21T12:34:01;101524.69;;;33.45;28.23
59789;BME280;47353;51.614;5.530;2022-08-21T12:36:53;101521.13;;;32.99;28.52
59789;BME280;47353;51.614;5.530;2022-08-21T12:39:24;101519.31;;;33.47;27.22
59789;BME280;47353;51.614;5.530;2022-08-21T12:42:19;101524.78;;;34.65;24.75
59789;BME280;47353;51.614;5.530;2022-08-21T12:44:46;101530.25;;;33.83;25.55
59789;BME280;47353;51.614;5.530;2022-08-21T12:47:43;101528.06;;;32.59;27.44
59789;BME280;47353;51.614;5.530;2022-08-21T12:50:38;101536.59;;;31.99;28.35
59789;BME280;47353;51.614;5.530;2022-08-21T12:53:12;101530.50;;;30.64;31.67
59789;BME280;47353;51.614;5.530;2022-08-21T12:55:42;101524.78;;;29.51;31.91
59789;BME280;47353;51.614;5.530;2022-08-21T12:58:17;101524.06;;;29.02;32.38
59789;BME280;47353;51.614;5.530;2022-08-21T13:00:49;101519.91;;;29.85;31.42
59789;BME280;47353;51.614;5.530;2022-08-21T13:03:16;101516.03;;;29.37;31.39
59789;BME280;47353;51.614;5.530;2022-08-21T13:05:41;101514.94;;;28.89;33.50
59789;BME280;47353;51.614;5.530;2022-08-21T13:08:10;101515.63;;;30.41;32.88
59789;BME280;47353;51.614;5.530;2022-08-21T13:10:47;101513.75;;;32.70;27.52
59789;BME280;47353;51.614;5.530;2022-08-21T13:13:21;101522.81;;;34.55;26.16
59789;BME280;47353;51.614;5.530;2022-08-21T13:15:47;101532.78;;;35.95;23.49
59789;BME280;47353;51.614;5.530;2022-08-21T13:18:24;101519.16;;;35.96;22.32
59789;BME280;47353;51.614;5.530;2022-08-21T13:20:51;101521.03;;;36.09;22.72
59789;BME280;47353;51.614;5.530;2022-08-21T13:23:27;101527.22;;;36.08;23.07
59789;BME280;47353;51.614;5.530;2022-08-21T13:25:53;101538.88;;;36.01;22.02
59789;BME280;47353;51.614;5.530;2022-08-21T13:28:18;101529.13;;;34.83;23.05
59789;BME280;47353;51.614;5.530;2022-08-21T13:30:49;101528.91;;;34.64;23.15
59789;BME280;47353;51.614;5.530;2022-08-21T13:33:18;101503.09;;;32.63;25.78
59789;BME280;47353;51.614;5.530;2022-08-21T13:38:26;101515.78;;;28.93;31.31
59789;BME280;47353;51.614;5.530;2022-08-21T13:40:57;101503.97;;;28.65;32.42
59789;BME280;47353;51.614;5.530;2022-08-21T13:43:33;101522.97;;;30.93;29.63
59789;BME280;47353;51.614;5.530;2022-08-21T13:46:00;101515.31;;;32.00;29.24
59789;BME280;47353;51.614;5.530;2022-08-21T13:48:29;101524.00;;;32.50;27.19
59789;BME280;47353;51.614;5.530;2022-08-21T13:50:58;101525.34;;;33.73;25.97
59789;BME280;47353;51.614;5.530;2022-08-21T13:55:51;101523.09;;;36.09;22.66
59789;BME280;47353;51.614;5.530;2022-08-21T14:00:52;101512.16;;;33.87;24.52
59789;BME280;47353;51.614;5.530;2022-08-21T14:05:59;101507.22;;;35.67;23.86
59789;BME280;47353;51.614;5.530;2022-08-21T14:08:38;101510.44;;;36.29;23.78
59789;BME280;47353;51.614;5.530;2022-08-21T14:11:11;101509.16;;;34.15;24.70
59789;BME280;47353;51.614;5.530;2022-08-21T14:13:43;101507.19;;;32.69;26.78
59789;BME280;47353;51.614;5.530;2022-08-21T14:16:22;101501.69;;;33.38;27.09